createdAt,value
2023-02-08T00:01:16.817Z,98487.47
2023-02-08T00:03:45.704Z,98482.31
2023-02-08T00:06:15.400Z,98478.00
2023-02-08T00:08:44.389Z,98477.09
2023-02-08T00:11:12.673Z,98473.66
2023-02-08T00:13:42.845Z,98473.63
2023-02-08T00:16:12.368Z,98468.44
2023-02-08T00:18:42.702Z,98471.03
2023-02-08T00:21:12.275Z,98460.69
2023-02-08T00:23:40.532Z,98457.19
2023-02-08T00:26:08.929Z,98453.78
2023-02-08T00:28:37.083Z,98456.34
2023-02-08T00:31:06.016Z,98454.56
2023-02-08T00:33:34.285Z,98445.09
2023-02-08T00:36:05.958Z,98449.41
2023-02-08T00:38:34.449Z,98439.88
2023-02-08T00:41:02.581Z,98446.78
2023-02-08T00:43:30.563Z,98439.88
2023-02-08T00:46:00.100Z,98445.03
2023-02-08T00:48:28.804Z,98433.81
2023-02-08T00:51:06.231Z,98443.28
2023-02-08T00:53:37.234Z,98435.53
2023-02-08T00:56:07.521Z,98441.50
2023-02-08T00:58:36.073Z,98450.09
2023-02-08T01:01:05.876Z,98441.47
2023-02-08T01:03:35.401Z,98451.81
2023-02-08T01:06:06.987Z,98450.09
2023-02-08T01:08:35.346Z,98453.47
2023-02-08T01:11:05.155Z,98455.16
2023-02-08T01:13:33.399Z,98459.47
2023-02-08T01:16:07.900Z,98461.19
2023-02-08T01:18:36.048Z,98458.53
2023-02-08T01:21:10.431Z,98463.72
2023-02-08T01:23:40.805Z,98456.84
2023-02-08T01:26:10.079Z,98453.41
2023-02-08T01:28:39.928Z,98453.38
2023-02-08T01:31:09.015Z,98453.34
2023-02-08T01:33:37.636Z,98443.91
2023-02-08T01:36:07.198Z,98431.84
2023-02-08T01:38:37.774Z,98438.66
2023-02-08T01:41:07.694Z,98425.75
2023-02-08T01:43:56.579Z,98436.03
2023-02-08T01:46:25.985Z,98432.56
2023-02-08T01:48:55.415Z,98432.56
2023-02-08T01:51:26.915Z,98427.41
2023-02-08T01:53:57.188Z,98421.28
2023-02-08T01:56:33.274Z,98418.75
2023-02-08T01:59:04.727Z,98417.84
2023-02-08T02:01:35.006Z,98417.81
2023-02-08T02:04:04.543Z,98414.41
2023-02-08T02:06:36.343Z,98417.78
2023-02-08T02:09:11.453Z,98415.22
2023-02-08T02:14:48.549Z,98408.31
2023-02-08T02:17:21.535Z,98403.16
2023-02-08T02:19:57.425Z,98399.72
2023-02-08T02:22:46.706Z,98393.63
2023-02-08T02:25:38.404Z,98404.78
2023-02-08T02:28:53.917Z,98401.44
2023-02-08T02:32:00.690Z,98397.94
2023-02-08T02:34:38.727Z,98394.56
2023-02-08T02:37:17.003Z,98392.81
2023-02-08T02:39:58.391Z,98396.41
2023-02-08T02:42:53.638Z,98388.59
2023-02-08T02:45:32.367Z,98396.28
2023-02-08T02:48:07.630Z,98393.66
2023-02-08T02:50:42.599Z,98396.19
2023-02-08T02:53:19.635Z,98391.88
2023-02-08T02:55:52.400Z,98393.56
2023-02-08T02:58:24.926Z,98394.47
2023-02-08T03:00:54.140Z,98384.94
2023-02-08T03:03:26.164Z,98394.38
2023-02-08T03:06:00.942Z,98391.81
2023-02-08T03:08:50.052Z,98392.59
2023-02-08T03:11:22.893Z,98392.59
2023-02-08T03:14:20.603Z,98390.91
2023-02-08T03:17:07.745Z,98396.06
2023-02-08T03:19:44.855Z,98385.69
2023-02-08T03:22:18.827Z,98390.88
2023-02-08T03:24:56.359Z,98384.69
2023-02-08T03:27:34.257Z,98390.78
2023-02-08T03:30:07.694Z,98392.41
2023-02-08T03:32:42.999Z,98390.72
2023-02-08T03:35:17.949Z,98392.47
2023-02-08T03:37:51.363Z,98395.88
2023-02-08T03:40:24.004Z,98401.91
2023-02-08T03:42:55.376Z,98389.81
2023-02-08T03:45:26.384Z,98395.81
2023-02-08T03:47:59.633Z,98395.81
2023-02-08T03:50:32.556Z,98394.13
2023-02-08T03:53:01.550Z,98389.81
2023-02-08T03:55:33.839Z,98393.25
2023-02-08T03:58:10.341Z,98383.75
2023-02-08T04:00:43.898Z,98386.28
2023-02-08T04:03:17.018Z,98387.16
2023-02-08T04:05:47.664Z,98375.97
2023-02-08T04:08:16.014Z,98381.16
2023-02-08T04:10:43.895Z,98386.22
2023-02-08T04:13:12.803Z,98378.47
2023-02-08T04:15:44.789Z,98385.28
2023-02-08T04:18:12.760Z,98378.44
2023-02-08T04:20:41.056Z,98374.22
2023-02-08T04:23:11.648Z,98387.13
2023-02-08T04:25:40.081Z,98381.13
2023-02-08T04:28:07.880Z,98380.25
2023-02-08T04:30:36.294Z,98378.50
2023-02-08T04:33:04.886Z,98373.34
2023-02-08T04:35:32.810Z,98376.81
2023-02-08T04:38:01.924Z,98382.00
2023-02-08T04:40:31.917Z,98382.00
2023-02-08T04:43:02.425Z,98375.94
2023-02-08T04:45:32.169Z,98368.16
2023-02-08T04:48:01.549Z,98370.72
2023-02-08T04:50:30.622Z,98365.53
2023-02-08T04:52:59.568Z,98367.19
2023-02-08T04:55:28.431Z,98364.69
2023-02-08T04:57:57.827Z,98363.00
2023-02-08T05:00:25.696Z,98358.66
2023-02-08T05:02:54.464Z,98363.81
2023-02-08T05:05:23.444Z,98356.09
2023-02-08T05:07:51.737Z,98354.41
2023-02-08T05:10:19.919Z,98351.75
2023-02-08T05:12:47.715Z,98340.56
2023-02-08T05:15:18.765Z,98342.28
2023-02-08T05:17:46.774Z,98346.59
2023-02-08T05:20:15.668Z,98341.44
2023-02-08T05:22:43.959Z,98347.47
2023-02-08T05:25:12.125Z,98345.78
2023-02-08T05:27:40.200Z,98350.84
2023-02-08T05:30:08.991Z,98347.41
2023-02-08T05:32:39.734Z,98346.59
2023-02-08T05:35:10.025Z,98337.13
2023-02-08T05:37:38.642Z,98339.69
2023-02-08T05:40:09.080Z,98351.72
2023-02-08T05:42:37.644Z,98353.44
2023-02-08T05:45:07.320Z,98360.22
2023-02-08T05:47:35.839Z,98359.41
2023-02-08T05:50:05.797Z,98357.72
2023-02-08T05:52:33.683Z,98363.72
2023-02-08T05:55:01.592Z,98356.81
2023-02-08T05:57:31.384Z,98357.69
2023-02-08T05:59:59.790Z,98361.19
2023-02-08T06:02:27.719Z,98367.25
2023-02-08T06:04:56.576Z,98367.16
2023-02-08T06:07:26.433Z,98364.56
2023-02-08T06:09:54.268Z,98366.25
2023-02-08T06:12:22.080Z,98374.09
2023-02-08T06:14:49.958Z,98366.41
2023-02-08T06:17:18.087Z,98368.09
2023-02-08T06:19:47.015Z,98362.81
2023-02-08T06:22:16.593Z,98369.72
2023-02-08T06:24:45.785Z,98366.22
2023-02-08T06:27:14.477Z,98366.16
2023-02-08T06:29:42.316Z,98367.00
2023-02-08T06:32:11.333Z,98366.06
2023-02-08T06:34:40.117Z,98371.22
2023-02-08T06:37:10.400Z,98367.81
2023-02-08T06:39:39.166Z,98369.44
2023-02-08T06:42:08.995Z,98377.22
2023-02-08T06:44:40.462Z,98372.84
2023-02-08T06:47:12.419Z,98375.50
2023-02-08T06:49:41.677Z,98379.72
2023-02-08T06:52:10.756Z,98373.75
2023-02-08T06:54:39.700Z,98378.09
2023-02-08T06:57:09.094Z,98382.38
2023-02-08T06:59:37.259Z,98377.16
2023-02-08T07:02:05.292Z,98379.72
2023-02-08T07:04:33.944Z,98377.13
2023-02-08T07:07:03.021Z,98372.03
2023-02-08T07:09:31.826Z,98377.09
2023-02-08T07:11:59.917Z,98382.34
2023-02-08T07:14:29.159Z,98381.47
2023-02-08T07:16:58.036Z,98386.78
2023-02-08T07:19:27.437Z,98388.47
2023-02-08T07:21:58.023Z,98387.69
2023-02-08T07:24:25.856Z,98392.91
2023-02-08T07:26:54.138Z,98387.88
2023-02-08T07:29:22.611Z,98387.97
2023-02-08T07:31:52.785Z,98388.09
2023-02-08T07:34:21.940Z,98387.38
2023-02-08T07:36:49.853Z,98384.94
2023-02-08T07:39:17.749Z,98384.19
2023-02-08T07:41:47.117Z,98382.59
2023-02-08T07:44:15.261Z,98378.41
2023-02-08T07:46:43.383Z,98381.00
2023-02-08T07:49:12.946Z,98384.56
2023-02-08T07:51:41.776Z,98385.47
2023-02-08T07:54:09.636Z,98383.81
2023-02-08T07:56:37.521Z,98387.31
2023-02-08T07:59:05.397Z,98385.66
2023-02-08T08:01:33.723Z,98382.28
2023-02-08T08:04:02.603Z,98378.00
2023-02-08T08:06:31.900Z,98378.91
2023-02-08T08:08:59.808Z,98368.63
2023-02-08T08:11:27.741Z,98376.44
2023-02-08T08:13:55.936Z,98375.63
2023-02-08T08:16:25.287Z,98378.19
2023-02-08T08:18:53.193Z,98380.81
2023-02-08T08:21:21.148Z,98368.78
2023-02-08T08:23:52.035Z,98364.50
2023-02-08T08:26:22.572Z,98371.44
2023-02-08T08:28:52.723Z,98368.00
2023-02-08T08:31:22.883Z,98376.66
2023-02-08T08:33:51.712Z,98373.22
2023-02-08T08:36:20.296Z,98370.63
2023-02-08T08:38:50.404Z,98369.78
2023-02-08T08:41:18.994Z,98368.94
2023-02-08T08:43:47.359Z,98364.63
2023-02-08T08:46:16.632Z,98362.03
2023-02-08T08:48:45.073Z,98365.50
2023-02-08T08:51:14.155Z,98370.69
2023-02-08T08:53:42.612Z,98362.06
2023-02-08T08:56:12.116Z,98362.91
2023-02-08T08:58:39.979Z,98362.91
2023-02-08T09:01:07.835Z,98359.47
2023-02-08T09:03:36.111Z,98362.91
2023-02-08T09:06:04.082Z,98363.78
2023-02-08T09:08:33.410Z,98359.47
2023-02-08T09:11:06.205Z,98349.97
2023-02-08T09:13:36.965Z,98348.22
2023-02-08T09:16:09.715Z,98352.53
2023-02-08T09:18:38.048Z,98349.06
2023-02-08T09:21:11.110Z,98346.47
2023-02-08T09:23:39.745Z,98351.66
2023-02-08T09:26:10.929Z,98351.63
2023-02-08T09:28:40.721Z,98354.22
2023-02-08T09:31:09.230Z,98348.16
2023-02-08T09:33:37.142Z,98349.00
2023-02-08T09:36:05.348Z,98343.78
2023-02-08T09:38:34.918Z,98336.03
2023-02-08T09:41:20.496Z,98353.28
2023-02-08T09:44:02.135Z,98340.31
2023-02-08T09:46:35.908Z,98343.72
2023-02-08T09:49:08.449Z,98340.25
2023-02-08T09:51:41.032Z,98347.19
2023-02-08T09:54:16.453Z,98338.50
2023-02-08T09:56:46.160Z,98339.34
2023-02-08T09:59:21.452Z,98347.13
2023-02-08T10:01:52.582Z,98347.06
2023-02-08T10:04:29.662Z,98337.56
2023-02-08T10:06:58.328Z,98341.84
2023-02-08T10:09:27.982Z,98338.38
2023-02-08T10:12:08.083Z,98340.94
2023-02-08T10:14:57.043Z,98343.53
2023-02-08T10:17:43.538Z,98332.22
2023-02-08T10:20:25.194Z,98333.97
2023-02-08T10:23:04.062Z,98338.28
2023-02-08T10:25:45.345Z,98335.66
2023-02-08T10:28:31.421Z,98332.19
2023-02-08T10:31:09.891Z,98326.03
2023-02-08T10:33:47.900Z,98328.59
2023-02-08T10:36:21.975Z,98318.16
2023-02-08T10:38:54.512Z,98311.22
2023-02-08T10:41:27.120Z,98316.38
2023-02-08T10:44:06.011Z,98313.69
2023-02-08T10:46:41.956Z,98315.41
2023-02-08T10:49:17.911Z,98310.22
2023-02-08T10:51:47.241Z,98316.19
2023-02-08T10:54:17.762Z,98311.03
2023-02-08T10:56:49.200Z,98310.09
2023-02-08T10:59:21.117Z,98306.56
2023-02-08T11:01:51.914Z,98299.63
2023-02-08T11:04:20.688Z,98296.13
2023-02-08T11:06:51.771Z,98292.53
2023-02-08T11:09:26.578Z,98291.66
2023-02-08T11:11:55.586Z,98286.34
2023-02-08T11:14:40.999Z,98285.44
2023-02-08T11:17:26.958Z,98288.00
2023-02-08T11:19:55.175Z,98284.50
2023-02-08T11:22:25.632Z,98283.56
2023-02-08T11:25:00.125Z,98277.50
2023-02-08T11:27:35.479Z,98272.25
2023-02-08T11:30:23.308Z,98279.03
2023-02-08T11:33:22.778Z,98264.34
2023-02-08T11:36:01.809Z,98259.88
2023-02-08T11:38:32.664Z,98256.44
2023-02-08T11:41:05.548Z,98263.38
2023-02-08T11:43:36.570Z,98253.78
2023-02-08T11:46:08.011Z,98248.50
2023-02-08T11:48:43.526Z,98254.59
2023-02-08T11:51:15.597Z,98240.63
2023-02-08T11:53:49.152Z,98238.81
2023-02-08T11:56:20.890Z,98233.56
2023-02-08T11:59:03.102Z,98234.34
2023-02-08T12:01:34.552Z,98225.69
2023-02-08T12:04:06.559Z,98228.22
2023-02-08T12:07:03.266Z,98225.56
2023-02-08T12:09:49.652Z,98229.72
2023-02-08T12:12:29.100Z,98237.53
2023-02-08T12:15:07.157Z,98230.63
2023-02-08T12:17:56.173Z,98227.16
2023-02-08T12:20:42.513Z,98221.91
2023-02-08T12:23:45.744Z,98216.63
2023-02-08T12:26:21.094Z,98217.41
2023-02-08T12:29:10.974Z,98216.56
2023-02-08T12:31:58.402Z,98207.84
2023-02-08T12:34:40.702Z,98204.34
2023-02-08T12:37:42.510Z,98205.16
2023-02-08T12:40:41.813Z,98196.44
2023-02-08T12:43:21.521Z,98207.63
2023-02-08T12:46:09.339Z,98192.00
2023-02-08T12:49:06.539Z,98200.66
2023-02-08T12:51:44.162Z,98195.44
2023-02-08T12:54:17.396Z,98185.81
2023-02-08T12:57:01.581Z,98177.19
2023-02-08T12:59:35.117Z,98173.63
2023-02-08T13:02:16.963Z,98170.19
2023-02-08T13:04:48.688Z,98166.66
2023-02-08T13:07:22.137Z,98167.50
2023-02-08T13:10:02.546Z,98159.69
2023-02-08T13:12:33.724Z,98154.44
2023-02-08T13:15:11.864Z,98151.84
2023-02-08T13:17:49.430Z,98144.81
2023-02-08T13:20:31.010Z,98150.78
2023-02-08T13:23:03.621Z,98143.06
2023-02-08T13:25:37.154Z,98146.47
2023-02-08T13:28:09.100Z,98136.91
2023-02-08T13:30:40.283Z,98130.84
2023-02-08T13:33:18.106Z,98133.44
2023-02-08T13:35:51.484Z,98129.03
2023-02-08T13:38:28.387Z,98131.53
2023-02-08T13:41:07.174Z,98130.66
2023-02-08T13:43:42.091Z,98126.31
2023-02-08T13:46:12.069Z,98132.44
2023-02-08T13:48:48.023Z,98126.31
2023-02-08T13:52:02.303Z,98128.81
2023-02-08T13:54:30.322Z,98128.84
2023-02-08T13:57:01.327Z,98138.41
2023-02-08T13:59:35.622Z,98137.50
2023-02-08T14:02:22.798Z,98129.69
2023-02-08T14:04:53.997Z,98125.25
2023-02-08T14:07:41.669Z,98125.31
2023-02-08T14:10:23.984Z,98129.59
2023-02-08T14:12:59.956Z,98120.84
2023-02-08T14:15:33.820Z,98115.72
2023-02-08T14:18:02.936Z,98124.41
2023-02-08T14:20:39.325Z,98122.63
2023-02-08T14:23:21.412Z,98126.88
2023-02-08T14:25:51.874Z,98133.81
2023-02-08T14:28:31.983Z,98132.88
2023-02-08T14:31:02.435Z,98126.72
2023-02-08T14:33:35.101Z,98130.28
2023-02-08T14:36:06.239Z,98122.50
2023-02-08T14:39:08.590Z,98132.03
2023-02-08T14:41:51.582Z,98126.00
2023-02-08T14:44:55.969Z,98122.59
2023-02-08T14:47:54.920Z,98120.88
2023-02-08T14:50:30.176Z,98126.06
2023-02-08T14:53:04.213Z,98135.63
2023-02-08T14:55:38.466Z,98128.69
2023-02-08T14:58:08.557Z,98119.16
2023-02-08T15:00:38.983Z,98119.16
2023-02-08T15:03:15.963Z,98121.75
2023-02-08T15:05:57.859Z,98120.88
2023-02-08T15:08:26.074Z,98117.41
2023-02-08T15:10:53.957Z,98117.47
2023-02-08T15:13:24.827Z,98122.72
2023-02-08T15:15:55.958Z,98122.72
2023-02-08T15:18:29.436Z,98122.75
2023-02-08T15:21:04.768Z,98126.16
2023-02-08T15:23:32.893Z,98128.94
2023-02-08T15:26:05.228Z,98128.16
2023-02-08T15:28:37.791Z,98117.75
2023-02-08T15:31:09.315Z,98123.94
2023-02-08T15:33:42.530Z,98126.56
2023-02-08T15:36:23.335Z,98108.41
2023-02-08T15:38:51.261Z,98117.09
2023-02-08T15:41:26.231Z,98123.19
2023-02-08T15:44:02.209Z,98114.53
2023-02-08T15:46:31.788Z,98110.28
2023-02-08T15:49:01.301Z,98112.09
2023-02-08T15:51:30.579Z,98110.34
2023-02-08T15:53:58.651Z,98112.28
2023-02-08T15:56:37.545Z,98110.56
2023-02-08T15:59:07.943Z,98105.31
2023-02-08T16:01:37.012Z,98114.09
2023-02-08T16:04:08.412Z,98118.50
2023-02-08T16:06:40.114Z,98116.03
2023-02-08T16:09:08.310Z,98128.25
2023-02-08T16:11:37.748Z,98127.44
2023-02-08T16:14:07.819Z,98123.06
2023-02-08T16:16:42.646Z,98124.97
2023-02-08T16:19:24.190Z,98123.31
2023-02-08T16:21:53.394Z,98119.91
2023-02-08T16:24:25.115Z,98122.53
2023-02-08T16:26:58.313Z,98124.44
2023-02-08T16:29:30.338Z,98119.25
2023-02-08T16:32:07.913Z,98120.13
2023-02-08T16:34:39.793Z,98121.94
2023-02-08T16:37:19.690Z,98122.00
2023-02-08T16:39:56.052Z,98122.13
2023-02-08T16:42:29.924Z,98123.06
2023-02-08T16:45:13.923Z,98127.41
2023-02-08T16:47:43.177Z,98123.91
2023-02-08T16:50:16.109Z,98130.97
2023-02-08T16:52:44.187Z,98127.53
2023-02-08T16:55:23.192Z,98124.09
2023-02-08T16:57:53.085Z,98121.50
2023-02-08T17:00:25.189Z,98128.50
2023-02-08T17:02:53.499Z,98132.91
2023-02-08T17:05:25.039Z,98132.06
2023-02-08T17:07:52.948Z,98127.78
2023-02-08T17:10:26.482Z,98136.47
2023-02-08T17:13:07.036Z,98142.59
2023-02-08T17:15:44.575Z,98141.75
2023-02-08T17:18:14.931Z,98144.41
2023-02-08T17:20:44.979Z,98144.41
2023-02-08T17:23:15.686Z,98143.66
2023-02-08T17:25:44.470Z,98155.75
2023-02-08T17:28:17.484Z,98151.56
2023-02-08T17:30:48.657Z,98153.22
2023-02-08T17:33:18.909Z,98148.97
2023-02-08T17:35:50.592Z,98153.34
2023-02-08T17:38:19.446Z,98155.06
2023-02-08T17:40:48.304Z,98162.97
2023-02-08T17:43:18.068Z,98163.84
2023-02-08T17:45:46.687Z,98157.84
2023-02-08T17:48:15.020Z,98159.56
2023-02-08T17:50:47.795Z,98162.19
2023-02-08T17:53:17.700Z,98172.63
2023-02-08T17:55:47.780Z,98176.09
2023-02-08T17:58:15.675Z,98164.91
2023-02-08T18:00:43.500Z,98161.41
2023-02-08T18:03:12.070Z,98158.00
2023-02-08T18:05:40.042Z,98163.19
2023-02-08T18:08:07.897Z,98154.59
2023-02-08T18:10:37.097Z,98154.59
2023-02-08T18:13:05.129Z,98156.34
2023-02-08T18:15:34.932Z,98158.06
2023-02-08T18:18:03.273Z,98157.25
2023-02-08T18:20:31.830Z,98153.84
2023-02-08T18:22:59.708Z,98165.94
2023-02-08T18:25:27.703Z,98164.22
2023-02-08T18:27:57.140Z,98158.19
2023-02-08T18:30:26.182Z,98161.69
2023-02-08T18:32:54.015Z,98158.22
2023-02-08T18:35:22.466Z,98149.63
2023-02-08T18:37:50.409Z,98153.13
2023-02-08T18:40:19.232Z,98159.19
2023-02-08T18:42:47.097Z,98147.97
2023-02-08T18:45:16.394Z,98154.00
2023-02-08T18:47:44.334Z,98150.56
2023-02-08T18:50:12.435Z,98149.75
2023-02-08T18:52:40.255Z,98149.75
2023-02-08T18:55:08.545Z,98151.53
2023-02-08T18:57:38.903Z,98145.50
2023-02-08T19:00:07.687Z,98150.69
2023-02-08T19:02:39.352Z,98149.00
2023-02-08T19:05:07.943Z,98155.03
2023-02-08T19:07:36.331Z,98156.72
2023-02-08T19:10:04.811Z,98149.00
2023-02-08T19:12:32.616Z,98156.78
2023-02-08T19:15:00.476Z,98139.56
2023-02-08T19:17:28.489Z,98149.09
2023-02-08T19:19:59.576Z,98138.72
2023-02-08T19:22:27.422Z,98146.53
2023-02-08T19:24:55.870Z,98144.81
2023-02-08T19:27:24.948Z,98137.00
2023-02-08T19:29:56.249Z,98145.69
2023-02-08T19:32:24.990Z,98132.75
2023-02-08T19:34:52.859Z,98136.19
2023-02-08T19:37:22.090Z,98130.97
2023-02-08T19:39:51.273Z,98123.25
2023-02-08T19:42:19.701Z,98135.34
2023-02-08T19:44:48.225Z,98130.16
2023-02-08T19:47:16.872Z,98138.81
2023-02-08T19:49:44.893Z,98137.09
2023-02-08T19:52:16.949Z,98136.25
2023-02-08T19:54:47.048Z,98131.97
2023-02-08T19:57:16.092Z,98135.47
2023-02-08T19:59:44.631Z,98138.06
2023-02-08T20:02:13.576Z,98138.06
2023-02-08T20:04:42.291Z,98139.84
2023-02-08T20:07:10.346Z,98132.91
2023-02-08T20:09:38.545Z,98128.59
2023-02-08T20:12:09.228Z,98127.72
2023-02-08T20:14:38.118Z,98125.16
2023-02-08T20:17:05.912Z,98137.31
2023-02-08T20:19:37.020Z,98126.06
2023-02-08T20:22:06.085Z,98132.13
2023-02-08T20:24:34.623Z,98115.72
2023-02-08T20:27:02.487Z,98114.00
2023-02-08T20:29:31.723Z,98114.00
2023-02-08T20:31:59.621Z,98114.88
2023-02-08T20:34:27.725Z,98114.91
2023-02-08T20:37:11.887Z,98127.03
2023-02-08T20:39:41.545Z,98125.28
2023-02-08T20:42:10.716Z,98135.69
2023-02-08T20:44:41.337Z,98120.13
2023-02-08T20:47:10.731Z,98119.28
2023-02-08T20:49:40.212Z,98118.41
2023-02-08T20:52:08.733Z,98112.44
2023-02-08T20:54:37.069Z,98107.22
2023-02-08T20:57:05.450Z,98115.06
2023-02-08T20:59:33.795Z,98123.66
2023-02-08T21:02:04.935Z,98112.47
2023-02-08T21:04:32.882Z,98113.31
2023-02-08T21:07:00.797Z,98107.31
2023-02-08T21:09:29.036Z,98107.28
2023-02-08T21:11:56.849Z,98118.53
2023-02-08T21:14:25.355Z,98122.00
2023-02-08T21:16:58.901Z,98116.00
2023-02-08T21:19:31.146Z,98114.31
2023-02-08T21:22:02.022Z,98115.19
2023-02-08T21:24:30.907Z,98122.13
2023-02-08T21:26:58.959Z,98116.09
2023-02-08T21:29:29.341Z,98120.41
2023-02-08T21:31:57.817Z,98116.13
2023-02-08T21:34:26.729Z,98120.44
2023-02-08T21:36:58.612Z,98111.81
2023-02-08T21:39:28.415Z,98112.69
2023-02-08T21:41:56.368Z,98112.69
2023-02-08T21:44:24.284Z,98106.66
2023-02-08T21:46:52.946Z,98105.81
2023-02-08T21:49:39.414Z,98109.25
2023-02-08T21:52:26.127Z,98103.28
2023-02-08T21:54:54.064Z,98104.16
2023-02-08T21:57:25.020Z,98098.97
2023-02-08T21:59:55.769Z,98104.16
2023-02-08T22:02:25.892Z,98094.69
2023-02-08T22:04:55.142Z,98095.53
2023-02-08T22:07:24.509Z,98087.78
2023-02-08T22:09:54.998Z,98088.66
2023-02-08T22:12:24.631Z,98087.78
2023-02-08T22:14:52.517Z,98090.38
2023-02-08T22:17:21.033Z,98085.22
2023-02-08T22:19:48.865Z,98087.81
2023-02-08T22:22:18.348Z,98099.00
2023-02-08T22:24:50.120Z,98101.63
2023-02-08T22:27:18.062Z,98088.72
2023-02-08T22:29:46.692Z,98086.97
2023-02-08T22:32:17.033Z,98084.38
2023-02-08T22:34:46.440Z,98088.69
2023-02-08T22:37:16.690Z,98086.97
2023-02-08T22:39:46.229Z,98080.94
2023-02-08T22:42:16.649Z,98083.56
2023-02-08T22:44:46.726Z,98088.72
2023-02-08T22:47:14.972Z,98084.41
2023-02-08T22:49:44.368Z,98083.56
2023-02-08T22:52:12.375Z,98085.28
2023-02-08T22:54:41.452Z,98082.69
2023-02-08T22:57:11.266Z,98081.84
2023-02-08T22:59:41.200Z,98073.22
2023-02-08T23:02:09.460Z,98077.53
2023-02-08T23:04:38.194Z,98074.09
2023-02-08T23:07:06.229Z,98074.09
2023-02-08T23:09:34.167Z,98073.22
2023-02-08T23:12:02.033Z,98073.25
2023-02-08T23:14:29.917Z,98078.41
2023-02-08T23:16:59.185Z,98072.38
2023-02-08T23:19:27.167Z,98073.22
2023-02-08T23:21:55.104Z,98067.22
2023-02-08T23:24:22.976Z,98066.34
2023-02-08T23:26:51.277Z,98081.81
2023-02-08T23:29:19.146Z,98074.06
2023-02-08T23:31:47.095Z,98069.78
2023-02-08T23:34:16.486Z,98068.03
2023-02-08T23:36:44.457Z,98073.22
2023-02-08T23:39:12.294Z,98074.06
2023-02-08T23:41:40.184Z,98075.78
2023-02-08T23:44:08.170Z,98070.63
2023-02-08T23:46:36.072Z,98071.47
2023-02-08T23:49:04.135Z,98064.59
2023-02-08T23:51:33.363Z,98066.31
2023-02-08T23:54:01.246Z,98062.00
2023-02-08T23:56:31.922Z,98066.28
2023-02-08T23:59:00.624Z,98063.72
